sensor_id;sensor_type;location;lat;lon;timestamp;pressure;altitude;pressure_sealevel;temperature;humidity
64078;BME280;51039;49.696;10.808;2023-01-29T00:01:10;99538.88;;;-2.62;73.78
64078;BME280;51039;49.696;10.808;2023-01-29T00:03:36;99535.56;;;-2.64;73.56
64078;BME280;51039;49.696;10.808;2023-01-29T00:06:05;99543.34;;;-2.64;73.87
64078;BME280;51039;49.696;10.808;2023-01-29T00:08:33;99529.91;;;-2.57;73.95
64078;BME280;51039;49.696;10.808;2023-01-29T00:10:59;99534.19;;;-2.55;73.95
64078;BME280;51039;49.696;10.808;2023-01-29T00:13:26;99540.94;;;-2.53;74.16
64078;BME280;51039;49.696;10.808;2023-01-29T00:15:52;99533.69;;;-2.62;74.37
64078;BME280;51039;49.696;10.808;2023-01-29T00:18:19;99531.50;;;-2.54;74.10
64078;BME280;51039;49.696;10.808;2023-01-29T00:20:45;99532.34;;;-2.53;73.88
64078;BME280;51039;49.696;10.808;2023-01-29T00:23:10;99537.25;;;-2.49;74.01
64078;BME280;51039;49.696;10.808;2023-01-29T00:25:35;99532.72;;;-2.45;73.61
64078;BME280;51039;49.696;10.808;2023-01-29T00:28:01;99537.16;;;-2.47;73.39
64078;BME280;51039;49.696;10.808;2023-01-29T00:30:27;99531.97;;;-2.47;73.66
64078;BME280;51039;49.696;10.808;2023-01-29T00:32:52;99528.19;;;-2.42;73.72
64078;BME280;51039;49.696;10.808;2023-01-29T00:35:18;99527.25;;;-2.41;73.16
64078;BME280;51039;49.696;10.808;2023-01-29T00:37:43;99528.06;;;-2.54;73.66
64078;BME280;51039;49.696;10.808;2023-01-29T00:40:08;99524.53;;;-2.68;74.18
64078;BME280;51039;49.696;10.808;2023-01-29T00:42:34;99521.09;;;-2.83;74.96
64078;BME280;51039;49.696;10.808;2023-01-29T00:45:18;99509.38;;;-2.90;75.43
64078;BME280;51039;49.696;10.808;2023-01-29T00:47:43;99512.72;;;-2.88;74.88
64078;BME280;51039;49.696;10.808;2023-01-29T00:50:09;99509.31;;;-2.74;74.27
64078;BME280;51039;49.696;10.808;2023-01-29T00:52:35;99508.88;;;-2.66;74.23
64078;BME280;51039;49.696;10.808;2023-01-29T00:55:02;99514.88;;;-2.66;73.95
64078;BME280;51039;49.696;10.808;2023-01-29T00:57:29;99516.41;;;-2.62;74.26
64078;BME280;51039;49.696;10.808;2023-01-29T00:59:55;99521.75;;;-2.50;73.68
64078;BME280;51039;49.696;10.808;2023-01-29T01:02:21;99515.00;;;-2.53;73.77
64078;BME280;51039;49.696;10.808;2023-01-29T01:05:06;99511.97;;;-2.45;73.55
64078;BME280;51039;49.696;10.808;2023-01-29T01:07:34;99493.50;;;-2.41;73.35
64078;BME280;51039;49.696;10.808;2023-01-29T01:09:59;99491.94;;;-2.43;73.80
64078;BME280;51039;49.696;10.808;2023-01-29T01:12:43;99490.91;;;-2.41;73.54
64078;BME280;51039;49.696;10.808;2023-01-29T01:15:08;99497.41;;;-2.33;73.39
64078;BME280;51039;49.696;10.808;2023-01-29T01:17:34;99494.06;;;-2.35;73.52
64078;BME280;51039;49.696;10.808;2023-01-29T01:20:00;99499.84;;;-2.30;72.95
64078;BME280;51039;49.696;10.808;2023-01-29T01:22:26;99500.19;;;-2.22;73.10
64078;BME280;51039;49.696;10.808;2023-01-29T01:24:51;99508.34;;;-2.28;72.86
64078;BME280;51039;49.696;10.808;2023-01-29T01:27:17;99502.97;;;-2.40;73.08
64078;BME280;51039;49.696;10.808;2023-01-29T01:29:43;99512.53;;;-2.40;72.46
64078;BME280;51039;49.696;10.808;2023-01-29T01:32:09;99511.66;;;-2.41;73.30
64078;BME280;51039;49.696;10.808;2023-01-29T01:34:35;99514.38;;;-2.42;73.35
64078;BME280;51039;49.696;10.808;2023-01-29T01:37:00;99510.75;;;-2.54;73.48
64078;BME280;51039;49.696;10.808;2023-01-29T01:39:25;99506.78;;;-2.60;74.25
64078;BME280;51039;49.696;10.808;2023-01-29T01:41:51;99502.94;;;-2.68;74.03
64078;BME280;51039;49.696;10.808;2023-01-29T01:47:37;99505.81;;;-2.73;74.34
64078;BME280;51039;49.696;10.808;2023-01-29T01:50:16;99506.00;;;-2.76;74.41
64078;BME280;51039;49.696;10.808;2023-01-29T01:52:47;99501.53;;;-2.74;74.70
64078;BME280;51039;49.696;10.808;2023-01-29T01:55:18;99505.91;;;-2.74;74.62
64078;BME280;51039;49.696;10.808;2023-01-29T01:57:47;99508.13;;;-2.68;74.52
64078;BME280;51039;49.696;10.808;2023-01-29T02:00:18;99504.34;;;-2.77;74.55
64078;BME280;51039;49.696;10.808;2023-01-29T02:02:46;99511.25;;;-2.78;74.69
64078;BME280;51039;49.696;10.808;2023-01-29T02:05:32;99499.88;;;-2.75;74.34
64078;BME280;51039;49.696;10.808;2023-01-29T02:08:18;99499.59;;;-2.70;73.83
64078;BME280;51039;49.696;10.808;2023-01-29T02:11:09;99503.31;;;-2.74;74.18
64078;BME280;51039;49.696;10.808;2023-01-29T02:13:34;99497.03;;;-2.70;74.48
64078;BME280;51039;49.696;10.808;2023-01-29T02:16:00;99493.41;;;-2.68;74.33
64078;BME280;51039;49.696;10.808;2023-01-29T02:18:25;99491.09;;;-2.58;74.05
64078;BME280;51039;49.696;10.808;2023-01-29T02:21:14;99481.09;;;-2.64;74.05
64078;BME280;51039;49.696;10.808;2023-01-29T02:24:00;99485.38;;;-2.63;74.58
64078;BME280;51039;49.696;10.808;2023-01-29T02:26:47;99483.00;;;-2.82;75.12
64078;BME280;51039;49.696;10.808;2023-01-29T02:29:28;99485.91;;;-2.72;75.06
64078;BME280;51039;49.696;10.808;2023-01-29T02:34:46;99485.06;;;-2.73;74.55
64078;BME280;51039;49.696;10.808;2023-01-29T02:40:47;99492.13;;;-2.75;75.02
64078;BME280;51039;49.696;10.808;2023-01-29T02:43:46;99493.16;;;-2.63;75.08
64078;BME280;51039;49.696;10.808;2023-01-29T02:46:22;99489.06;;;-2.53;74.67
64078;BME280;51039;49.696;10.808;2023-01-29T02:54:55;99470.09;;;-2.53;73.71
64078;BME280;51039;49.696;10.808;2023-01-29T02:57:29;99481.84;;;-2.48;73.75
64078;BME280;51039;49.696;10.808;2023-01-29T03:00:07;99479.91;;;-2.44;74.00
64078;BME280;51039;49.696;10.808;2023-01-29T03:05:12;99481.84;;;-2.48;73.27
64078;BME280;51039;49.696;10.808;2023-01-29T03:07:44;99484.97;;;-2.43;73.73
64078;BME280;51039;49.696;10.808;2023-01-29T03:10:17;99492.22;;;-2.48;74.13
64078;BME280;51039;49.696;10.808;2023-01-29T03:13:11;99491.50;;;-2.50;73.85
64078;BME280;51039;49.696;10.808;2023-01-29T03:15:43;99482.97;;;-2.52;73.25
64078;BME280;51039;49.696;10.808;2023-01-29T03:18:16;99474.97;;;-2.49;73.53
64078;BME280;51039;49.696;10.808;2023-01-29T03:20:46;99483.13;;;-2.41;73.31
64078;BME280;51039;49.696;10.808;2023-01-29T03:23:19;99488.88;;;-2.35;73.15
64078;BME280;51039;49.696;10.808;2023-01-29T03:26:20;99486.28;;;-2.35;72.56
64078;BME280;51039;49.696;10.808;2023-01-29T03:29:05;99498.69;;;-2.41;72.89
64078;BME280;51039;49.696;10.808;2023-01-29T03:31:52;99496.31;;;-2.44;73.62
64078;BME280;51039;49.696;10.808;2023-01-29T03:34:34;99507.50;;;-2.43;73.75
64078;BME280;51039;49.696;10.808;2023-01-29T03:37:09;99498.16;;;-2.46;74.18
64078;BME280;51039;49.696;10.808;2023-01-29T03:39:40;99494.63;;;-2.45;73.78
64078;BME280;51039;49.696;10.808;2023-01-29T03:45:25;99509.28;;;-2.44;73.40
64078;BME280;51039;49.696;10.808;2023-01-29T03:48:01;99511.31;;;-2.63;73.70
64078;BME280;51039;49.696;10.808;2023-01-29T03:50:52;99501.47;;;-2.58;73.99
64078;BME280;51039;49.696;10.808;2023-01-29T03:53:23;99513.97;;;-2.50;73.18
64078;BME280;51039;49.696;10.808;2023-01-29T03:58:37;99526.13;;;-2.51;74.27
64078;BME280;51039;49.696;10.808;2023-01-29T04:01:10;99529.84;;;-2.55;74.00
64078;BME280;51039;49.696;10.808;2023-01-29T04:03:38;99524.47;;;-2.52;73.44
64078;BME280;51039;49.696;10.808;2023-01-29T04:06:12;99512.41;;;-2.53;73.38
64078;BME280;51039;49.696;10.808;2023-01-29T04:08:43;99520.56;;;-2.45;74.02
64078;BME280;51039;49.696;10.808;2023-01-29T04:11:15;99510.09;;;-2.43;74.09
64078;BME280;51039;49.696;10.808;2023-01-29T04:13:43;99510.47;;;-2.49;74.05
64078;BME280;51039;49.696;10.808;2023-01-29T04:16:12;99517.41;;;-2.64;74.01
64078;BME280;51039;49.696;10.808;2023-01-29T04:18:44;99528.13;;;-2.85;73.93
64078;BME280;51039;49.696;10.808;2023-01-29T04:21:13;99520.44;;;-2.86;73.79
64078;BME280;51039;49.696;10.808;2023-01-29T04:23:39;99532.00;;;-2.78;73.83
64078;BME280;51039;49.696;10.808;2023-01-29T04:31:33;99515.53;;;-2.77;74.20
64078;BME280;51039;49.696;10.808;2023-01-29T04:34:12;99514.06;;;-2.81;74.45
64078;BME280;51039;49.696;10.808;2023-01-29T04:39:39;99511.66;;;-2.55;74.51
64078;BME280;51039;49.696;10.808;2023-01-29T04:42:14;99510.56;;;-2.51;74.18
64078;BME280;51039;49.696;10.808;2023-01-29T04:45:27;99498.13;;;-2.60;74.36
64078;BME280;51039;49.696;10.808;2023-01-29T04:53:27;99496.84;;;-2.53;74.17
64078;BME280;51039;49.696;10.808;2023-01-29T04:56:03;99494.53;;;-2.43;73.83
64078;BME280;51039;49.696;10.808;2023-01-29T04:58:43;99490.16;;;-2.43;73.20
64078;BME280;51039;49.696;10.808;2023-01-29T05:01:14;99496.22;;;-2.42;73.64
64078;BME280;51039;49.696;10.808;2023-01-29T05:03:43;99491.28;;;-2.47;74.58
64078;BME280;51039;49.696;10.808;2023-01-29T05:06:13;99495.34;;;-2.43;74.34
64078;BME280;51039;49.696;10.808;2023-01-29T05:08:42;99490.09;;;-2.41;73.66
64078;BME280;51039;49.696;10.808;2023-01-29T05:11:08;99481.47;;;-2.56;74.24
64078;BME280;51039;49.696;10.808;2023-01-29T05:13:35;99477.78;;;-2.52;73.58
64078;BME280;51039;49.696;10.808;2023-01-29T05:16:04;99475.56;;;-2.44;73.27
64078;BME280;51039;49.696;10.808;2023-01-29T05:18:31;99477.94;;;-2.41;72.96
64078;BME280;51039;49.696;10.808;2023-01-29T05:20:57;99465.34;;;-2.47;73.69
64078;BME280;51039;49.696;10.808;2023-01-29T05:23:28;99462.56;;;-2.58;74.08
64078;BME280;51039;49.696;10.808;2023-01-29T05:25:53;99451.25;;;-2.71;74.65
64078;BME280;51039;49.696;10.808;2023-01-29T05:28:20;99438.66;;;-2.92;74.12
64078;BME280;51039;49.696;10.808;2023-01-29T05:30:47;99441.78;;;-2.87;74.67
64078;BME280;51039;49.696;10.808;2023-01-29T05:35:43;99443.00;;;-2.64;73.89
64078;BME280;51039;49.696;10.808;2023-01-29T05:38:09;99448.31;;;-2.51;74.15
64078;BME280;51039;49.696;10.808;2023-01-29T05:40:34;99436.53;;;-2.42;73.92
64078;BME280;51039;49.696;10.808;2023-01-29T05:43:00;99443.69;;;-2.46;73.42
64078;BME280;51039;49.696;10.808;2023-01-29T05:45:25;99443.94;;;-2.50;73.11
64078;BME280;51039;49.696;10.808;2023-01-29T05:47:55;99449.72;;;-2.60;73.88
64078;BME280;51039;49.696;10.808;2023-01-29T05:50:21;99443.13;;;-2.51;73.39
64078;BME280;51039;49.696;10.808;2023-01-29T05:52:47;99450.91;;;-2.51;73.59
64078;BME280;51039;49.696;10.808;2023-01-29T05:55:12;99456.34;;;-2.70;74.12
64078;BME280;51039;49.696;10.808;2023-01-29T05:57:38;99462.94;;;-2.64;74.34
64078;BME280;51039;49.696;10.808;2023-01-29T06:00:05;99461.28;;;-2.51;73.92
64078;BME280;51039;49.696;10.808;2023-01-29T06:02:31;99455.91;;;-2.48;74.18
64078;BME280;51039;49.696;10.808;2023-01-29T06:04:56;99451.19;;;-2.55;73.78
64078;BME280;51039;49.696;10.808;2023-01-29T06:07:21;99460.53;;;-2.53;75.03
64078;BME280;51039;49.696;10.808;2023-01-29T06:09:46;99458.56;;;-2.64;74.72
64078;BME280;51039;49.696;10.808;2023-01-29T06:12:12;99472.59;;;-2.52;74.35
64078;BME280;51039;49.696;10.808;2023-01-29T06:14:37;99479.91;;;-2.44;74.03
64078;BME280;51039;49.696;10.808;2023-01-29T06:17:02;99477.13;;;-2.41;73.79
64078;BME280;51039;49.696;10.808;2023-01-29T06:19:28;99466.81;;;-2.43;74.34
64078;BME280;51039;49.696;10.808;2023-01-29T06:21:54;99465.53;;;-2.50;74.05
64078;BME280;51039;49.696;10.808;2023-01-29T06:24:19;99470.09;;;-2.53;74.46
64078;BME280;51039;49.696;10.808;2023-01-29T06:26:44;99478.50;;;-2.64;74.16
64078;BME280;51039;49.696;10.808;2023-01-29T06:29:10;99474.97;;;-2.49;74.24
64078;BME280;51039;49.696;10.808;2023-01-29T06:31:35;99479.72;;;-2.41;73.88
64078;BME280;51039;49.696;10.808;2023-01-29T06:34:00;99479.91;;;-2.44;73.63
64078;BME280;51039;49.696;10.808;2023-01-29T06:36:25;99487.78;;;-2.46;73.89
64078;BME280;51039;49.696;10.808;2023-01-29T06:38:51;99484.25;;;-2.45;73.24
64078;BME280;51039;49.696;10.808;2023-01-29T06:41:17;99482.97;;;-2.52;73.71
64078;BME280;51039;49.696;10.808;2023-01-29T06:43:44;99481.47;;;-2.56;73.65
64078;BME280;51039;49.696;10.808;2023-01-29T06:46:10;99481.13;;;-2.50;74.11
64078;BME280;51039;49.696;10.808;2023-01-29T06:48:35;99486.31;;;-2.50;73.81
64078;BME280;51039;49.696;10.808;2023-01-29T06:51:02;99482.75;;;-2.49;74.03
64078;BME280;51039;49.696;10.808;2023-01-29T06:53:28;99480.75;;;-2.44;73.72
64078;BME280;51039;49.696;10.808;2023-01-29T06:55:53;99480.53;;;-2.41;74.10
64078;BME280;51039;49.696;10.808;2023-01-29T06:58:19;99480.53;;;-2.55;74.25
64078;BME280;51039;49.696;10.808;2023-01-29T07:00:44;99471.19;;;-2.43;73.88
64078;BME280;51039;49.696;10.808;2023-01-29T07:03:10;99482.31;;;-2.55;73.74
64078;BME280;51039;49.696;10.808;2023-01-29T07:05:35;99474.72;;;-2.44;73.62
64078;BME280;51039;49.696;10.808;2023-01-29T07:08:01;99486.19;;;-2.34;73.68
64078;BME280;51039;49.696;10.808;2023-01-29T07:10:26;99483.22;;;-2.28;73.86
64078;BME280;51039;49.696;10.808;2023-01-29T07:12:52;99473.41;;;-2.23;73.89
64078;BME280;51039;49.696;10.808;2023-01-29T07:15:17;99482.19;;;-2.25;73.03
64078;BME280;51039;49.696;10.808;2023-01-29T07:17:44;99474.41;;;-2.25;73.41
64078;BME280;51039;49.696;10.808;2023-01-29T07:20:19;99472.19;;;-2.17;73.81
64078;BME280;51039;49.696;10.808;2023-01-29T07:22:45;99475.31;;;-2.12;73.29
64078;BME280;51039;49.696;10.808;2023-01-29T07:25:10;99480.03;;;-2.04;73.26
64078;BME280;51039;49.696;10.808;2023-01-29T07:27:35;99476.84;;;-2.08;73.54
64078;BME280;51039;49.696;10.808;2023-01-29T07:30:01;99489.44;;;-2.16;73.37
64078;BME280;51039;49.696;10.808;2023-01-29T07:32:27;99489.81;;;-2.22;73.67
64078;BME280;51039;49.696;10.808;2023-01-29T07:34:52;99495.47;;;-2.15;74.30
64078;BME280;51039;49.696;10.808;2023-01-29T07:37:18;99504.34;;;-2.20;74.35
64078;BME280;51039;49.696;10.808;2023-01-29T07:39:43;99499.00;;;-2.31;74.86
64078;BME280;51039;49.696;10.808;2023-01-29T07:42:10;99501.94;;;-2.37;74.58
64078;BME280;51039;49.696;10.808;2023-01-29T07:44:35;99509.06;;;-2.41;74.74
64078;BME280;51039;49.696;10.808;2023-01-29T07:47:01;99509.06;;;-2.41;75.01
64078;BME280;51039;49.696;10.808;2023-01-29T07:49:26;99517.88;;;-2.43;74.01
64078;BME280;51039;49.696;10.808;2023-01-29T07:51:51;99515.88;;;-2.38;74.44
64078;BME280;51039;49.696;10.808;2023-01-29T07:54:16;99524.19;;;-2.33;74.36
64078;BME280;51039;49.696;10.808;2023-01-29T07:56:42;99515.41;;;-2.30;74.08
64078;BME280;51039;49.696;10.808;2023-01-29T07:59:07;99513.81;;;-2.33;74.56
64078;BME280;51039;49.696;10.808;2023-01-29T08:01:32;99503.34;;;-2.31;74.76
64078;BME280;51039;49.696;10.808;2023-01-29T08:03:58;99508.81;;;-2.36;74.19
64078;BME280;51039;49.696;10.808;2023-01-29T08:06:23;99508.00;;;-2.37;74.24
64078;BME280;51039;49.696;10.808;2023-01-29T08:08:48;99506.38;;;-2.10;73.60
64078;BME280;51039;49.696;10.808;2023-01-29T08:11:14;99499.91;;;-2.03;73.16
64078;BME280;51039;49.696;10.808;2023-01-29T08:13:39;99496.84;;;-2.10;73.66
64078;BME280;51039;49.696;10.808;2023-01-29T08:16:04;99496.09;;;-2.12;73.69
64078;BME280;51039;49.696;10.808;2023-01-29T08:18:30;99505.38;;;-2.08;73.69
64078;BME280;51039;49.696;10.808;2023-01-29T08:20:59;99515.75;;;-1.93;73.60
64078;BME280;51039;49.696;10.808;2023-01-29T08:23:25;99511.94;;;-1.88;72.69
64078;BME280;51039;49.696;10.808;2023-01-29T08:25:50;99524.63;;;-1.83;72.46
64078;BME280;51039;49.696;10.808;2023-01-29T08:28:16;99528.00;;;-1.95;72.01
64078;BME280;51039;49.696;10.808;2023-01-29T08:30:41;99528.34;;;-1.73;71.42
64078;BME280;51039;49.696;10.808;2023-01-29T08:33:08;99531.34;;;-1.52;71.24
64078;BME280;51039;49.696;10.808;2023-01-29T08:35:33;99518.31;;;-1.38;70.18
64078;BME280;51039;49.696;10.808;2023-01-29T08:37:59;99527.47;;;-1.32;69.74
64078;BME280;51039;49.696;10.808;2023-01-29T08:40:27;99538.56;;;-1.15;69.21
64078;BME280;51039;49.696;10.808;2023-01-29T08:43:05;99548.16;;;-1.03;68.19
64078;BME280;51039;49.696;10.808;2023-01-29T08:45:32;99550.53;;;-1.13;68.80
64078;BME280;51039;49.696;10.808;2023-01-29T08:47:59;99552.91;;;-1.37;68.90
64078;BME280;51039;49.696;10.808;2023-01-29T08:50:24;99555.72;;;-1.40;69.09
64078;BME280;51039;49.696;10.808;2023-01-29T08:52:49;99560.94;;;-1.54;69.30
64078;BME280;51039;49.696;10.808;2023-01-29T08:55:15;99566.69;;;-1.49;69.99
64078;BME280;51039;49.696;10.808;2023-01-29T08:57:40;99559.81;;;-1.50;69.37
64078;BME280;51039;49.696;10.808;2023-01-29T09:00:06;99556.31;;;-1.49;69.49
64078;BME280;51039;49.696;10.808;2023-01-29T09:02:33;99555.22;;;-1.60;69.37
64078;BME280;51039;49.696;10.808;2023-01-29T09:04:58;99559.06;;;-1.38;69.08
64078;BME280;51039;49.696;10.808;2023-01-29T09:07:24;99562.16;;;-1.46;69.00
64078;BME280;51039;49.696;10.808;2023-01-29T09:09:49;99556.72;;;-1.43;68.99
64078;BME280;51039;49.696;10.808;2023-01-29T09:12:14;99558.25;;;-1.39;69.00
64078;BME280;51039;49.696;10.808;2023-01-29T09:14:39;99556.47;;;-1.38;69.06
64078;BME280;51039;49.696;10.808;2023-01-29T09:17:05;99554.75;;;-1.25;68.54
64078;BME280;51039;49.696;10.808;2023-01-29T09:19:30;99544.03;;;-1.20;73.81
64078;BME280;51039;49.696;10.808;2023-01-29T09:21:55;99543.44;;;-0.58;69.93
64078;BME280;51039;49.696;10.808;2023-01-29T09:24:20;99538.25;;;-0.71;67.25
64078;BME280;51039;49.696;10.808;2023-01-29T09:26:46;99538.94;;;-0.82;66.43
64078;BME280;51039;49.696;10.808;2023-01-29T09:29:11;99527.50;;;-0.79;66.82
64078;BME280;51039;49.696;10.808;2023-01-29T09:31:37;99527.50;;;-0.79;66.05
64078;BME280;51039;49.696;10.808;2023-01-29T09:34:02;99515.38;;;-0.40;65.37
64078;BME280;51039;49.696;10.808;2023-01-29T09:36:27;99510.03;;;-0.26;65.25
64078;BME280;51039;49.696;10.808;2023-01-29T09:38:53;99499.72;;;-0.14;64.28
64078;BME280;51039;49.696;10.808;2023-01-29T09:41:25;99493.25;;;-0.09;63.90
64078;BME280;51039;49.696;10.808;2023-01-29T09:43:55;99485.34;;;-0.07;64.08
64078;BME280;51039;49.696;10.808;2023-01-29T09:49:14;99491.00;;;-0.26;64.24
64078;BME280;51039;49.696;10.808;2023-01-29T09:51:40;99495.13;;;-0.11;64.32
64078;BME280;51039;49.696;10.808;2023-01-29T09:56:57;99503.28;;;1.18;61.51
64078;BME280;51039;49.696;10.808;2023-01-29T09:59:25;99519.47;;;1.46;59.68
64078;BME280;51039;49.696;10.808;2023-01-29T10:02:05;99519.56;;;1.33;60.58
64078;BME280;51039;49.696;10.808;2023-01-29T10:12:43;99542.06;;;2.14;58.55
64078;BME280;51039;49.696;10.808;2023-01-29T10:18:25;99540.72;;;1.41;59.50
64078;BME280;51039;49.696;10.808;2023-01-29T10:23:40;99552.25;;;0.66;61.86
64078;BME280;51039;49.696;10.808;2023-01-29T10:26:12;99553.16;;;1.02;61.50
64078;BME280;51039;49.696;10.808;2023-01-29T10:28:44;99550.41;;;1.04;61.32
64078;BME280;51039;49.696;10.808;2023-01-29T10:31:16;99549.94;;;0.74;62.78
64078;BME280;51039;49.696;10.808;2023-01-29T10:34:06;99528.94;;;1.00;60.94
64078;BME280;51039;49.696;10.808;2023-01-29T10:36:41;99517.91;;;0.96;61.60
64078;BME280;51039;49.696;10.808;2023-01-29T10:39:15;99520.81;;;0.19;63.50
64078;BME280;51039;49.696;10.808;2023-01-29T10:48:10;99502.28;;;0.72;61.64
64078;BME280;51039;49.696;10.808;2023-01-29T10:58:48;99473.97;;;0.31;61.81
64078;BME280;51039;49.696;10.808;2023-01-29T11:01:15;99471.44;;;0.66;63.30
64078;BME280;51039;49.696;10.808;2023-01-29T11:03:40;99474.03;;;1.02;61.41
64078;BME280;51039;49.696;10.808;2023-01-29T11:06:14;99464.44;;;1.02;61.08
64078;BME280;51039;49.696;10.808;2023-01-29T11:08:51;99464.59;;;1.12;60.83
64078;BME280;51039;49.696;10.808;2023-01-29T11:11:17;99453.69;;;1.18;60.46
64078;BME280;51039;49.696;10.808;2023-01-29T11:13:49;99448.09;;;1.23;60.24
64078;BME280;51039;49.696;10.808;2023-01-29T11:16:19;99453.59;;;1.20;61.13
64078;BME280;51039;49.696;10.808;2023-01-29T11:21:14;99446.72;;;1.30;60.59
64078;BME280;51039;49.696;10.808;2023-01-29T11:23:40;99437.00;;;1.66;60.19
64078;BME280;51039;49.696;10.808;2023-01-29T11:26:05;99432.84;;;0.83;60.26
64078;BME280;51039;49.696;10.808;2023-01-29T11:28:39;99416.09;;;1.21;61.48
64078;BME280;51039;49.696;10.808;2023-01-29T11:33:50;99417.50;;;1.25;61.38
64078;BME280;51039;49.696;10.808;2023-01-29T11:36:25;99403.03;;;1.21;60.77
64078;BME280;51039;49.696;10.808;2023-01-29T11:41:43;99375.84;;;1.01;60.08
64078;BME280;51039;49.696;10.808;2023-01-29T11:44:25;99384.53;;;1.46;60.84
64078;BME280;51039;49.696;10.808;2023-01-29T11:46:54;99379.78;;;1.29;60.49
64078;BME280;51039;49.696;10.808;2023-01-29T11:49:22;99377.16;;;1.40;60.44
64078;BME280;51039;49.696;10.808;2023-01-29T11:51:55;99376.22;;;1.41;60.06
64078;BME280;51039;49.696;10.808;2023-01-29T11:54:24;99373.72;;;1.17;61.08
64078;BME280;51039;49.696;10.808;2023-01-29T11:56:53;99366.00;;;1.15;61.01
64078;BME280;51039;49.696;10.808;2023-01-29T12:01:51;99365.78;;;1.07;62.53
64078;BME280;51039;49.696;10.808;2023-01-29T12:04:19;99358.75;;;0.85;61.75
64078;BME280;51039;49.696;10.808;2023-01-29T12:06:48;99355.00;;;1.01;62.06
64078;BME280;51039;49.696;10.808;2023-01-29T12:09:20;99352.38;;;1.01;62.10
64078;BME280;51039;49.696;10.808;2023-01-29T12:11:48;99359.38;;;1.34;61.50
64078;BME280;51039;49.696;10.808;2023-01-29T12:14:25;99353.06;;;1.36;61.39
64078;BME280;51039;49.696;10.808;2023-01-29T12:24:37;99349.00;;;1.77;59.28
64078;BME280;51039;49.696;10.808;2023-01-29T12:35:29;99321.34;;;1.75;60.67
64078;BME280;51039;49.696;10.808;2023-01-29T12:38:09;99321.50;;;1.62;60.55
64078;BME280;51039;49.696;10.808;2023-01-29T12:40:39;99317.38;;;1.37;61.22
64078;BME280;51039;49.696;10.808;2023-01-29T12:43:26;99307.03;;;1.90;59.71
64078;BME280;51039;49.696;10.808;2023-01-29T12:45:57;99305.75;;;1.85;59.90
64078;BME280;51039;49.696;10.808;2023-01-29T12:48:33;99301.44;;;1.63;60.16
64078;BME280;51039;49.696;10.808;2023-01-29T12:51:12;99290.88;;;1.53;60.91
64078;BME280;51039;49.696;10.808;2023-01-29T12:53:44;99291.50;;;1.45;61.98
64078;BME280;51039;49.696;10.808;2023-01-29T12:58:47;99274.34;;;1.20;62.10
64078;BME280;51039;49.696;10.808;2023-01-29T13:07:27;99271.13;;;1.28;62.39
64078;BME280;51039;49.696;10.808;2023-01-29T13:10:00;99274.94;;;1.12;63.01
64078;BME280;51039;49.696;10.808;2023-01-29T13:12:32;99278.25;;;0.92;63.59
64078;BME280;51039;49.696;10.808;2023-01-29T13:15:08;99277.78;;;0.87;64.17
64078;BME280;51039;49.696;10.808;2023-01-29T13:17:46;99276.69;;;0.67;63.61
64078;BME280;51039;49.696;10.808;2023-01-29T13:20:50;99273.47;;;0.52;64.52
64078;BME280;51039;49.696;10.808;2023-01-29T13:23:14;99262.94;;;0.65;63.45
64078;BME280;51039;49.696;10.808;2023-01-29T13:25:50;99255.88;;;0.20;64.38
64078;BME280;51039;49.696;10.808;2023-01-29T13:28:17;99255.19;;;-0.06;65.57
64078;BME280;51039;49.696;10.808;2023-01-29T13:30:44;99261.22;;;0.18;65.28
64078;BME280;51039;49.696;10.808;2023-01-29T13:33:28;99252.72;;;0.28;65.12
64078;BME280;51039;49.696;10.808;2023-01-29T13:35:57;99266.94;;;0.35;64.40
64078;BME280;51039;49.696;10.808;2023-01-29T13:38:24;99267.69;;;0.48;64.48
64078;BME280;51039;49.696;10.808;2023-01-29T13:40:53;99272.72;;;0.38;64.37
64078;BME280;51039;49.696;10.808;2023-01-29T13:43:24;99277.63;;;0.54;64.87
64078;BME280;51039;49.696;10.808;2023-01-29T13:45:51;99271.47;;;0.67;63.91
64078;BME280;51039;49.696;10.808;2023-01-29T13:48:28;99269.31;;;0.49;64.71
64078;BME280;51039;49.696;10.808;2023-01-29T13:51:02;99268.75;;;0.68;64.82
64078;BME280;51039;49.696;10.808;2023-01-29T13:53:39;99277.72;;;0.42;64.86
64078;BME280;51039;49.696;10.808;2023-01-29T13:58:53;99272.03;;;0.48;64.65
64078;BME280;51039;49.696;10.808;2023-01-29T14:06:51;99261.94;;;0.32;65.46
64078;BME280;51039;49.696;10.808;2023-01-29T14:12:02;99258.16;;;0.36;65.67
64078;BME280;51039;49.696;10.808;2023-01-29T14:17:12;99265.66;;;0.41;66.01
64078;BME280;51039;49.696;10.808;2023-01-29T14:19:49;99260.56;;;0.50;65.59
64078;BME280;51039;49.696;10.808;2023-01-29T14:22:22;99253.13;;;0.80;73.70
64078;BME280;51039;49.696;10.808;2023-01-29T14:24:55;99248.13;;;0.99;66.51
64078;BME280;51039;49.696;10.808;2023-01-29T14:27:24;99238.63;;;0.98;66.07
64078;BME280;51039;49.696;10.808;2023-01-29T14:29:50;99246.94;;;0.92;65.73
64078;BME280;51039;49.696;10.808;2023-01-29T14:32:21;99242.31;;;0.73;65.09
64078;BME280;51039;49.696;10.808;2023-01-29T14:34:50;99238.53;;;0.43;66.03
64078;BME280;51039;49.696;10.808;2023-01-29T14:37:31;99229.28;;;0.39;67.19
64078;BME280;51039;49.696;10.808;2023-01-29T14:42:56;99230.50;;;0.11;66.82
64078;BME280;51039;49.696;10.808;2023-01-29T14:48:00;99218.69;;;-0.17;68.37
64078;BME280;51039;49.696;10.808;2023-01-29T14:53:11;99213.91;;;0.01;67.37
64078;BME280;51039;49.696;10.808;2023-01-29T14:55:43;99212.75;;;0.05;67.45
64078;BME280;51039;49.696;10.808;2023-01-29T14:58:21;99216.91;;;-0.28;68.14
64078;BME280;51039;49.696;10.808;2023-01-29T15:00:52;99213.28;;;-0.14;68.47
64078;BME280;51039;49.696;10.808;2023-01-29T15:06:08;99217.19;;;-0.44;69.17
64078;BME280;51039;49.696;10.808;2023-01-29T15:08:59;99218.78;;;-0.30;69.39
64078;BME280;51039;49.696;10.808;2023-01-29T15:11:51;99214.41;;;-0.30;69.17
64078;BME280;51039;49.696;10.808;2023-01-29T15:17:17;99202.00;;;-0.26;68.34
64078;BME280;51039;49.696;10.808;2023-01-29T15:19:54;99203.44;;;-0.22;68.82
64078;BME280;51039;49.696;10.808;2023-01-29T15:22:21;99197.81;;;-0.40;69.58
64078;BME280;51039;49.696;10.808;2023-01-29T15:25:03;99199.81;;;-0.44;69.58